createdAt,value
2018-07-11T00:00:24.176Z,94.60
2018-07-11T00:02:54.929Z,93.74
2018-07-11T00:03:54.295Z,93.64
2018-07-11T00:04:54.947Z,94.21
2018-07-11T00:05:55.436Z,94.98
2018-07-11T00:06:55.435Z,94.60
2018-07-11T00:07:55.436Z,94.50
2018-07-11T00:08:55.436Z,94.02
2018-07-11T00:11:27.210Z,94.60
2018-07-11T00:12:31.152Z,94.40
2018-07-11T00:13:27.216Z,94.31
2018-07-11T00:14:27.723Z,94.89
2018-07-11T00:15:27.723Z,94.60
2018-07-11T00:16:27.722Z,93.93
2018-07-11T00:17:27.729Z,94.21
2018-07-11T00:18:27.312Z,94.31
2018-07-11T00:19:28.217Z,93.93
2018-07-11T00:20:28.225Z,94.31
2018-07-11T00:21:28.716Z,94.21
2018-07-11T00:22:31.651Z,94.50
2018-07-11T00:23:28.722Z,94.50
2018-07-11T00:24:28.067Z,93.54
2018-07-11T00:25:31.648Z,94.50
2018-07-11T00:26:50.215Z,93.93
2018-07-11T00:27:29.218Z,94.50
2018-07-11T00:29:59.971Z,95.36
2018-07-11T00:31:00.725Z,94.50
2018-07-11T00:32:00.216Z,94.89
2018-07-11T00:34:33.430Z,94.50
2018-07-11T00:35:32.479Z,94.60
2018-07-11T00:36:32.478Z,94.40
2018-07-11T00:37:33.052Z,94.31
2018-07-11T00:38:53.977Z,94.31
2018-07-11T00:39:32.977Z,94.60
2018-07-11T00:40:32.977Z,94.21
2018-07-11T00:41:33.477Z,94.02
2018-07-11T00:44:04.880Z,94.69
2018-07-11T00:45:06.324Z,95.36
2018-07-11T00:46:04.892Z,95.56
2018-07-11T00:47:04.901Z,95.07
2018-07-11T00:48:05.391Z,95.36
2018-07-11T00:49:26.392Z,95.07
2018-07-11T00:50:05.401Z,95.46
2018-07-11T00:51:05.392Z,95.84
2018-07-11T00:52:04.991Z,94.98
2018-07-11T00:53:05.093Z,94.89
2018-07-11T00:54:08.825Z,94.50
2018-07-11T00:55:05.892Z,94.79
2018-07-11T00:56:26.892Z,95.07
2018-07-11T00:57:06.392Z,94.89
2018-07-11T00:58:06.394Z,94.50
2018-07-11T00:59:06.392Z,95.07
2018-07-11T01:00:06.396Z,94.69
2018-07-11T01:01:06.892Z,94.69
2018-07-11T01:02:08.326Z,94.79
2018-07-11T01:03:06.892Z,94.60
2018-07-11T01:04:06.892Z,93.74
2018-07-11T01:05:07.403Z,94.31
2018-07-11T01:06:29.346Z,94.89
2018-07-11T01:07:06.697Z,94.98
2018-07-11T01:08:07.393Z,94.50
2018-07-11T01:09:07.393Z,95.36
2018-07-11T01:10:15.827Z,94.60
2018-07-11T01:11:07.904Z,95.07
2018-07-11T01:12:07.892Z,94.79
2018-07-11T01:13:07.892Z,94.79
2018-07-11T01:14:08.431Z,94.89
2018-07-11T01:15:29.392Z,94.69
2018-07-11T01:16:08.392Z,94.79
2018-07-11T01:17:08.394Z,94.02
2018-07-11T01:18:29.893Z,93.83
2018-07-11T01:19:32.393Z,94.26
2018-07-11T01:20:08.892Z,94.84
2018-07-11T01:21:10.352Z,95.12
2018-07-11T01:22:30.392Z,94.93
2018-07-11T01:23:10.852Z,94.74
2018-07-11T01:24:10.389Z,95.46
2018-07-11T01:25:09.392Z,94.98
2018-07-11T01:26:09.388Z,95.41
2018-07-11T01:27:30.892Z,95.07
2018-07-11T01:28:36.904Z,95.27
2018-07-11T01:29:10.871Z,95.36
2018-07-11T01:30:09.892Z,95.17
2018-07-11T01:32:41.644Z,94.84
2018-07-11T01:33:41.653Z,94.26
2018-07-11T01:34:41.657Z,94.60
2018-07-11T01:38:44.832Z,93.74
2018-07-11T01:39:44.840Z,93.83
2018-07-11T01:40:44.839Z,94.69
2018-07-11T01:46:40.455Z,93.30
2018-07-11T01:47:39.774Z,94.26
2018-07-11T01:48:21.455Z,94.55
2018-07-11T01:49:19.455Z,94.65
2018-07-11T01:50:45.388Z,94.65
2018-07-11T01:51:19.962Z,95.41
2018-07-11T01:52:19.955Z,95.12
2018-07-11T01:53:25.957Z,95.03
2018-07-11T01:55:51.696Z,94.93
2018-07-11T01:57:13.637Z,95.79
2018-07-11T01:57:51.704Z,96.27
2018-07-11T01:58:52.206Z,95.89
2018-07-11T01:59:52.211Z,96.94
2018-07-11T02:00:52.203Z,96.75
2018-07-11T02:01:52.204Z,96.66
2018-07-11T02:04:23.955Z,96.37
2018-07-11T02:05:23.961Z,96.18
2018-07-11T02:06:38.462Z,96.66
2018-07-11T02:07:45.462Z,96.66
2018-07-11T02:08:24.462Z,96.08
2018-07-11T02:09:46.895Z,96.13
2018-07-11T02:10:24.894Z,95.79
2018-07-11T02:12:56.328Z,95.17
2018-07-11T02:13:55.676Z,94.84
2018-07-11T02:14:56.336Z,95.41
2018-07-11T02:15:56.835Z,94.65
2018-07-11T02:16:56.842Z,94.17
2018-07-11T02:17:56.835Z,94.89
2018-07-11T02:18:56.836Z,94.74
2018-07-11T02:20:20.336Z,95.03
2018-07-11T02:20:57.342Z,95.22
2018-07-11T02:21:57.336Z,95.22
2018-07-11T02:22:57.336Z,95.98
2018-07-11T02:23:57.836Z,96.18
2018-07-11T02:25:18.836Z,94.65
2018-07-11T02:29:21.778Z,95.17
2018-07-11T02:30:21.759Z,94.89
2018-07-11T02:31:02.734Z,94.98
2018-07-11T02:32:00.335Z,95.27
2018-07-11T02:33:22.260Z,95.46
2018-07-11T02:34:22.261Z,95.46
2018-07-11T02:35:01.324Z,95.17
2018-07-11T02:36:01.263Z,95.27
2018-07-11T02:37:22.764Z,95.17
2018-07-11T02:38:03.758Z,94.98
2018-07-11T02:39:22.770Z,95.27
2018-07-11T02:40:22.770Z,94.98
2018-07-11T02:41:24.256Z,95.65
2018-07-11T02:42:02.259Z,95.27
2018-07-11T02:43:22.592Z,95.17
2018-07-11T02:44:23.259Z,95.46
2018-07-11T02:45:16.264Z,95.17
2018-07-11T02:46:04.758Z,95.46
2018-07-11T02:47:23.759Z,94.79
2018-07-11T02:48:23.758Z,94.98
2018-07-11T02:49:02.766Z,94.98
2018-07-11T02:51:56.008Z,94.50
2018-07-11T02:55:59.319Z,94.89
2018-07-11T02:58:11.032Z,93.74
2018-07-11T02:59:09.602Z,93.93
2018-07-11T03:00:11.595Z,93.64
2018-07-11T03:01:31.091Z,93.45
2018-07-11T03:02:31.091Z,94.50
2018-07-11T03:03:10.090Z,93.83
2018-07-11T03:04:31.090Z,94.69
2018-07-11T03:05:10.596Z,94.31
2018-07-11T03:06:31.595Z,94.50
2018-07-11T03:07:10.590Z,94.40
2018-07-11T03:08:10.091Z,94.12
2018-07-11T03:10:42.333Z,93.64
2018-07-11T03:12:05.341Z,93.83
2018-07-11T03:13:03.350Z,93.50
2018-07-11T03:15:14.126Z,93.40
2018-07-11T03:16:15.594Z,93.93
2018-07-11T03:17:14.133Z,94.21
2018-07-11T03:18:37.109Z,95.17
2018-07-11T03:19:28.633Z,95.03
2018-07-11T03:20:35.633Z,94.74
2018-07-11T03:21:14.636Z,95.61
2018-07-11T03:22:29.133Z,95.41
2018-07-11T03:23:15.132Z,96.08
2018-07-11T03:24:15.135Z,95.22
2018-07-11T03:25:15.133Z,95.03
2018-07-11T03:26:15.630Z,94.93
2018-07-11T03:27:17.089Z,94.93
2018-07-11T03:28:15.643Z,94.74
2018-07-11T03:29:15.633Z,94.45
2018-07-11T03:30:36.633Z,94.45
2018-07-11T03:31:22.133Z,94.65
2018-07-11T03:34:08.509Z,95.61
2018-07-11T03:34:47.509Z,95.36
2018-07-11T03:35:47.509Z,96.18
2018-07-11T03:38:40.252Z,94.93
2018-07-11T03:39:40.264Z,95.61
2018-07-11T03:40:19.259Z,95.51
2018-07-11T03:41:42.769Z,94.65
2018-07-11T03:42:33.762Z,94.79
2018-07-11T03:43:19.760Z,94.79
2018-07-11T03:44:21.191Z,94.74
2018-07-11T03:45:42.691Z,94.26
2018-07-11T03:46:43.259Z,94.31
2018-07-11T03:47:20.260Z,93.45
2018-07-11T03:48:20.259Z,93.40
2018-07-11T03:51:13.003Z,94.45
2018-07-11T03:53:23.519Z,93.50
2018-07-11T03:54:23.528Z,94.60
2018-07-11T03:55:23.527Z,94.36
2018-07-11T03:58:16.271Z,94.74
2018-07-11T03:58:54.623Z,94.84
2018-07-11T03:59:54.718Z,94.93
2018-07-11T04:01:16.778Z,94.84
2018-07-11T04:02:10.715Z,95.22
2018-07-11T04:02:54.955Z,94.65
2018-07-11T04:04:16.781Z,94.84
2018-07-11T04:04:55.809Z,94.55
2018-07-11T04:05:55.778Z,94.84
2018-07-11T04:06:55.375Z,94.26
2018-07-11T04:07:56.278Z,94.84
2018-07-11T04:08:56.280Z,94.65
2018-07-11T04:10:17.277Z,94.93
2018-07-11T04:10:58.209Z,95.22
2018-07-11T04:11:56.777Z,94.26
2018-07-11T04:12:57.779Z,94.45
2018-07-11T04:13:56.245Z,93.98
2018-07-11T04:14:57.274Z,93.98
2018-07-11T04:15:57.279Z,94.79
2018-07-11T04:16:57.277Z,94.69
2018-07-11T04:17:57.281Z,94.84
2018-07-11T04:18:57.778Z,95.56
2018-07-11T04:20:18.781Z,94.79
2018-07-11T04:20:57.778Z,94.98
2018-07-11T04:21:57.777Z,94.02
2018-07-11T04:24:29.520Z,93.64
2018-07-11T04:25:29.526Z,94.40
2018-07-11T04:26:29.002Z,94.50
2018-07-11T04:27:30.029Z,94.31
2018-07-11T04:28:30.033Z,94.50
2018-07-11T04:29:30.034Z,93.54
2018-07-11T04:30:30.027Z,93.35
2018-07-11T04:31:30.529Z,93.64
2018-07-11T04:32:30.534Z,93.35
2018-07-11T04:33:30.545Z,93.83
2018-07-11T04:34:30.545Z,93.45
2018-07-11T04:35:31.026Z,93.93
2018-07-11T04:36:31.029Z,93.83
2018-07-11T04:37:31.023Z,93.35
2018-07-11T04:38:31.032Z,93.93
2018-07-11T04:39:31.524Z,93.83
2018-07-11T04:40:32.958Z,93.93
2018-07-11T04:41:31.527Z,94.12
2018-07-11T04:42:31.559Z,93.83
2018-07-11T04:43:32.027Z,93.54
2018-07-11T04:44:32.031Z,93.35
2018-07-11T04:45:32.027Z,93.45
2018-07-11T04:46:32.027Z,94.31
2018-07-11T04:49:03.805Z,94.98
2018-07-11T04:50:24.133Z,94.98
2018-07-11T04:51:24.810Z,94.69
2018-07-11T04:52:03.807Z,94.50
2018-07-11T04:53:11.307Z,94.79
2018-07-11T04:55:36.170Z,95.07
2018-07-11T04:56:36.183Z,95.27
2018-07-11T04:57:36.186Z,95.17
2018-07-11T04:58:36.187Z,95.56
2018-07-11T04:59:38.116Z,95.36
2018-07-11T05:02:08.042Z,94.60
2018-07-11T05:03:08.046Z,94.69
2018-07-11T05:04:29.053Z,95.07
2018-07-11T05:07:06.804Z,94.89
2018-07-11T05:07:41.244Z,94.89
2018-07-11T05:08:39.808Z,94.98
2018-07-11T05:09:39.811Z,95.27
2018-07-11T05:12:11.562Z,95.36
2018-07-11T05:13:31.896Z,95.36
2018-07-11T05:14:11.569Z,95.17
2018-07-11T05:15:11.568Z,95.84
2018-07-11T05:16:33.066Z,95.56
2018-07-11T05:17:12.068Z,95.27
2018-07-11T05:18:11.417Z,95.75
2018-07-11T05:19:12.076Z,95.94
2018-07-11T05:20:12.568Z,95.84
2018-07-11T05:21:12.569Z,94.93
2018-07-11T05:22:12.569Z,95.17
2018-07-11T05:23:12.572Z,96.18
2018-07-11T05:24:34.072Z,95.51
2018-07-11T05:25:14.043Z,95.41
2018-07-11T05:26:13.069Z,95.41
2018-07-11T05:27:13.079Z,94.84
2018-07-11T05:28:34.632Z,95.22
2018-07-11T05:29:14.567Z,94.93
2018-07-11T05:31:45.433Z,94.35
2018-07-11T05:32:46.441Z,94.84
2018-07-11T05:35:17.684Z,93.40
2018-07-11T05:36:17.754Z,93.40
2018-07-11T05:37:17.692Z,93.11
2018-07-11T05:38:38.278Z,94.17
2018-07-11T05:39:18.194Z,94.64
2018-07-11T05:40:18.191Z,94.35
2018-07-11T05:41:18.191Z,94.84
2018-07-11T05:42:18.689Z,95.22
2018-07-11T05:44:50.090Z,94.35
2018-07-11T05:45:51.539Z,94.35
2018-07-11T05:46:49.515Z,95.03
2018-07-11T05:47:52.053Z,94.35
2018-07-11T05:48:52.523Z,94.26
2018-07-11T05:49:50.588Z,93.88
2018-07-11T05:51:12.586Z,94.17
2018-07-11T05:52:11.241Z,94.26
2018-07-11T05:54:22.418Z,94.26
2018-07-11T05:55:22.425Z,95.03
2018-07-11T05:56:22.434Z,93.30
2018-07-11T05:57:43.011Z,93.49
2018-07-11T05:58:43.924Z,93.40
2018-07-11T05:59:22.924Z,93.49
2018-07-11T06:00:43.924Z,94.17
2018-07-11T06:01:23.425Z,93.69
2018-07-11T06:02:44.454Z,93.69
2018-07-11T06:03:37.431Z,93.69
2018-07-11T06:04:26.364Z,94.64
2018-07-11T06:05:23.934Z,93.78
2018-07-11T06:08:01.165Z,94.35
2018-07-11T06:08:55.188Z,94.26
2018-07-11T06:09:55.178Z,94.84
2018-07-11T06:14:18.625Z,93.59
2018-07-11T06:15:19.708Z,94.55
2018-07-11T06:15:58.379Z,94.17
2018-07-11T06:16:58.379Z,94.55
2018-07-11T06:18:25.878Z,93.49
2018-07-11T06:19:02.811Z,94.35
2018-07-11T06:20:21.312Z,94.26
2018-07-11T06:21:19.885Z,94.35
2018-07-11T06:21:59.379Z,94.35
2018-07-11T06:22:58.601Z,94.07
2018-07-11T06:23:59.386Z,94.64
2018-07-11T06:24:59.379Z,94.35
2018-07-11T06:27:31.172Z,94.07
2018-07-11T06:28:37.176Z,94.40
2018-07-11T06:29:31.178Z,93.83
2018-07-11T06:35:06.119Z,94.59
2018-07-11T06:37:37.622Z,93.83
2018-07-11T06:38:37.632Z,93.93
2018-07-11T06:39:37.115Z,91.72
2018-07-11T06:42:11.367Z,92.58
2018-07-11T06:43:31.793Z,93.35
2018-07-11T06:44:11.315Z,93.16
2018-07-11T06:45:15.871Z,93.26
2018-07-11T06:47:41.226Z,93.35
2018-07-11T06:49:02.232Z,93.44
2018-07-11T06:49:41.231Z,93.35
2018-07-11T06:50:55.731Z,91.82
2018-07-11T06:53:13.113Z,92.72
2018-07-11T06:54:42.042Z,93.21
2018-07-11T06:55:14.066Z,93.59
2018-07-11T06:56:34.613Z,93.40
2018-07-11T06:57:15.610Z,93.40
2018-07-11T06:58:15.610Z,92.15
2018-07-11T06:59:34.615Z,91.14
2018-07-11T07:00:13.102Z,91.72
2018-07-11T07:01:42.042Z,90.57
2018-07-11T07:02:34.321Z,90.47
2018-07-11T07:03:28.123Z,91.43
2018-07-11T07:04:35.110Z,91.82
2018-07-11T07:07:06.766Z,92.91
2018-07-11T07:07:45.780Z,91.67
2018-07-11T07:08:45.782Z,91.77
2018-07-11T07:10:07.272Z,92.63
2018-07-11T07:10:46.271Z,92.58
2018-07-11T07:12:00.278Z,92.19
2018-07-11T07:12:48.717Z,91.14
2018-07-11T07:15:17.980Z,90.28
2018-07-11T07:16:17.993Z,90.75
2018-07-11T07:17:17.996Z,89.99
2018-07-11T07:18:17.597Z,90.18
2018-07-11T07:19:18.486Z,89.61
2018-07-11T07:20:18.492Z,88.93
2018-07-11T07:21:18.487Z,86.34
2018-07-11T07:22:18.988Z,85.86
2018-07-11T07:23:19.986Z,86.92
2018-07-11T07:24:18.336Z,88.17
2018-07-11T07:25:18.988Z,89.26
2018-07-11T07:27:50.020Z,87.05
2018-07-11T07:28:50.742Z,85.91
2018-07-11T07:29:50.752Z,87.63
2018-07-11T07:34:07.947Z,86.19
2018-07-11T07:34:59.941Z,87.35
2018-07-11T07:36:16.946Z,88.98
2018-07-11T07:36:54.497Z,88.49
2018-07-11T07:37:56.879Z,88.35
2018-07-11T07:38:54.441Z,88.93
2018-07-11T07:39:54.439Z,88.35
2018-07-11T07:41:08.947Z,87.72
2018-07-11T07:42:00.942Z,87.82
2018-07-11T07:42:56.941Z,87.62
2018-07-11T07:43:54.944Z,85.80
2018-07-11T07:45:15.572Z,85.61
2018-07-11T07:47:47.810Z,85.89
2018-07-11T07:48:26.161Z,87.09
2018-07-11T07:49:26.822Z,86.71
2018-07-11T07:51:58.600Z,84.88
2018-07-11T07:52:58.690Z,84.40
2018-07-11T07:53:58.608Z,83.73
2018-07-11T07:54:58.209Z,85.55
2018-07-11T07:56:20.114Z,83.97
2018-07-11T07:56:58.467Z,83.69
2018-07-11T07:58:20.156Z,84.74
2018-07-11T07:59:20.608Z,84.94
2018-07-11T08:00:13.597Z,84.07
2018-07-11T08:01:22.552Z,85.89
2018-07-11T08:02:13.608Z,85.99
2018-07-11T08:03:02.540Z,85.13
2018-07-11T08:05:32.819Z,86.09
2018-07-11T08:06:52.392Z,85.41
2018-07-11T08:07:31.376Z,88.35
2018-07-11T08:08:31.876Z,89.02
2018-07-11T08:09:47.331Z,87.01
2018-07-11T08:12:03.341Z,84.60
2018-07-11T08:13:03.353Z,85.91
2018-07-11T08:14:03.348Z,87.92
2018-07-11T08:15:17.848Z,86.19
2018-07-11T08:16:03.861Z,86.38
2018-07-11T08:17:03.848Z,87.54
2018-07-11T08:18:04.846Z,87.92
2018-07-11T08:20:34.864Z,90.17
2018-07-11T08:21:35.595Z,89.98
2018-07-11T08:22:35.607Z,90.56
2018-07-11T08:25:07.873Z,90.27
2018-07-11T08:26:07.081Z,86.09
2018-07-11T08:27:07.194Z,84.74
2018-07-11T08:29:45.940Z,89.54
2018-07-11T08:32:34.817Z,87.62
2018-07-11T08:33:25.828Z,87.67
2018-07-11T08:34:11.824Z,89.21
2018-07-11T08:35:17.835Z,87.96
2018-07-11T08:37:46.030Z,86.61
2018-07-11T08:38:43.600Z,85.07
2018-07-11T08:39:43.608Z,85.36
2018-07-11T08:40:44.097Z,84.11
2018-07-11T08:41:43.317Z,84.78
2018-07-11T08:43:05.100Z,84.16
2018-07-11T08:43:44.104Z,85.78
2018-07-11T08:44:45.596Z,82.23
2018-07-11T08:45:43.863Z,79.77
2018-07-11T08:46:44.601Z,80.25
2018-07-11T08:47:44.604Z,83.81
2018-07-11T08:48:44.197Z,81.12
2018-07-11T08:49:45.108Z,82.98
2018-07-11T08:50:45.100Z,82.70
2018-07-11T08:51:45.098Z,82.12
2018-07-11T08:52:45.604Z,79.71
2018-07-11T08:53:46.557Z,81.25
2018-07-11T08:55:06.614Z,83.08
2018-07-11T08:55:46.592Z,77.31
2018-07-11T08:57:08.095Z,78.94
2018-07-11T09:02:19.732Z,73.38
2018-07-11T09:03:20.448Z,72.42
2018-07-11T09:04:20.462Z,71.65
2018-07-11T09:05:20.953Z,73.51
2018-07-11T09:07:52.312Z,78.42
2018-07-11T09:09:15.331Z,78.61
2018-07-11T09:09:52.325Z,80.77
2018-07-11T09:12:24.586Z,81.70
2018-07-11T09:13:24.595Z,80.92
2018-07-11T09:14:26.063Z,77.26
2018-07-11T09:15:24.172Z,79.19
2018-07-11T09:16:25.097Z,79.25
2018-07-11T09:17:52.123Z,80.79
2018-07-11T09:18:27.589Z,78.63
2018-07-11T09:21:17.850Z,76.23
2018-07-11T09:22:17.859Z,79.50
2018-07-11T09:22:56.339Z,78.73
2018-07-11T09:23:59.361Z,80.65
2018-07-11T09:26:34.738Z,79.05
2018-07-11T09:27:49.759Z,81.65
2018-07-11T09:28:49.752Z,79.02
2018-07-11T09:29:35.246Z,74.92
2018-07-11T09:30:30.683Z,76.94
2018-07-11T09:31:30.178Z,77.71
2018-07-11T09:32:30.244Z,80.88
2018-07-11T09:33:30.243Z,82.65
2018-07-11T09:34:29.744Z,81.79
2018-07-11T09:35:31.772Z,73.00
2018-07-11T09:36:52.218Z,71.55
2018-07-11T09:37:52.745Z,72.42
2018-07-11T09:38:32.251Z,77.23
2018-07-11T09:39:30.246Z,76.46
2018-07-11T09:42:01.044Z,78.06
2018-07-11T09:43:22.788Z,80.65
2018-07-11T09:44:01.778Z,80.27
2018-07-11T09:45:16.299Z,77.29
2018-07-11T09:47:34.180Z,75.56
2018-07-11T09:48:55.173Z,75.75
2018-07-11T09:49:34.172Z,81.04
2018-07-11T09:53:37.359Z,81.04
2018-07-11T09:54:37.367Z,80.65
2018-07-11T09:55:43.867Z,77.86
2018-07-11T09:56:37.098Z,81.32
2018-07-11T09:59:32.309Z,76.71
2018-07-11T10:01:41.436Z,77.67
2018-07-11T10:02:40.410Z,77.19
2018-07-11T10:03:41.439Z,77.29
2018-07-11T10:04:44.374Z,77.67
2018-07-11T10:07:35.943Z,76.26
2018-07-11T10:08:33.265Z,78.58
2018-07-11T10:09:33.944Z,77.36
2018-07-11T10:10:14.908Z,76.01
2018-07-11T10:13:05.671Z,78.17
2018-07-11T10:13:45.669Z,78.56
2018-07-11T10:14:44.671Z,75.67
2018-07-11T10:15:45.188Z,70.86
2018-07-11T10:17:59.171Z,70.66
2018-07-11T10:18:45.171Z,70.66
2018-07-11T10:19:45.670Z,74.74
2018-07-11T10:20:45.672Z,74.26
2018-07-11T10:21:45.760Z,75.99
2018-07-11T10:22:45.669Z,71.08
2018-07-11T10:25:38.425Z,72.85
2018-07-11T10:26:18.897Z,69.87
2018-07-11T10:27:17.444Z,71.70
2018-07-11T10:28:19.940Z,72.66
2018-07-11T10:29:19.375Z,68.71
2018-07-11T10:30:17.942Z,72.18
2018-07-11T10:31:19.368Z,71.89
2018-07-11T10:32:38.945Z,74.49
2018-07-11T10:33:17.936Z,74.30
2018-07-11T10:34:18.435Z,73.20
2018-07-11T10:35:23.867Z,71.76
2018-07-11T10:36:39.443Z,73.68
2018-07-11T10:37:18.439Z,75.03
2018-07-11T10:38:18.935Z,71.72
2018-07-11T10:39:18.946Z,74.32
2018-07-11T10:42:11.441Z,70.95
2018-07-11T10:42:50.443Z,74.22
2018-07-11T10:43:56.945Z,71.62
2018-07-11T10:44:56.996Z,73.65
2018-07-11T10:47:43.353Z,71.81
2018-07-11T10:48:44.353Z,70.43
2018-07-11T10:49:22.849Z,69.60
2018-07-11T10:50:43.850Z,72.30
2018-07-11T10:51:24.283Z,71.04
2018-07-11T10:52:22.851Z,70.76
2018-07-11T10:55:00.352Z,73.16
2018-07-11T10:55:54.369Z,68.06
2018-07-11T10:57:15.367Z,67.68
2018-07-11T10:57:54.896Z,68.35
2018-07-11T11:00:36.659Z,71.47
2018-07-11T11:01:26.294Z,69.93
2018-07-11T11:02:49.265Z,66.94
2018-07-11T11:05:25.004Z,66.55
2018-07-11T11:07:53.385Z,65.81
2018-07-11T11:10:50.122Z,64.95
2018-07-11T11:11:46.341Z,66.24
2018-07-11T11:12:50.196Z,67.68
2018-07-11T11:13:26.122Z,63.15
2018-07-11T11:14:47.130Z,64.89
2018-07-11T11:16:57.933Z,61.03
2018-07-11T11:17:57.906Z,64.05
2018-07-11T11:18:57.901Z,60.96
2018-07-11T11:20:21.405Z,65.20
2018-07-11T11:21:18.613Z,65.40
2018-07-11T11:22:19.401Z,63.76
2018-07-11T11:22:58.401Z,67.81
2018-07-11T11:24:00.922Z,64.89
2018-07-11T11:26:29.556Z,63.82
2018-07-11T11:27:30.296Z,64.59
2018-07-11T11:28:30.296Z,62.38
2018-07-11T11:32:33.491Z,65.75
2018-07-11T11:33:34.965Z,61.80
2018-07-11T11:34:53.934Z,58.90
2018-07-11T11:37:04.468Z,55.65
2018-07-11T11:38:05.205Z,56.32
2018-07-11T11:39:27.202Z,54.97
2018-07-11T11:40:07.706Z,56.83
2018-07-11T11:41:19.718Z,58.67
2018-07-11T11:42:05.793Z,53.45
2018-07-11T11:43:05.291Z,57.21
2018-07-11T11:44:12.205Z,59.25
2018-07-11T11:45:05.312Z,57.41
2018-07-11T11:46:06.217Z,53.42
2018-07-11T11:47:06.210Z,54.19
2018-07-11T11:48:06.226Z,54.00
2018-07-11T11:49:06.735Z,56.71
2018-07-11T11:50:08.752Z,58.80
2018-07-11T11:52:06.260Z,57.71
2018-07-11T11:53:06.701Z,59.38
2018-07-11T11:54:06.701Z,61.22
2018-07-11T11:55:06.718Z,56.16
2018-07-11T11:56:06.721Z,55.30
2018-07-11T11:57:06.703Z,61.12
2018-07-11T11:58:07.210Z,60.16
2018-07-11T11:59:07.216Z,60.35
2018-07-11T12:01:07.206Z,56.96
2018-07-11T12:02:07.308Z,57.84
2018-07-11T12:03:07.711Z,55.04
2018-07-11T12:04:07.569Z,57.84
2018-07-11T12:05:07.702Z,57.26
2018-07-11T12:06:08.205Z,57.16
2018-07-11T12:07:08.004Z,55.33
2018-07-11T12:08:08.207Z,59.58
2018-07-11T12:09:08.205Z,56.39
2018-07-11T12:10:08.720Z,57.06
2018-07-11T12:11:08.703Z,57.38
2018-07-11T12:12:08.705Z,58.35
2018-07-11T12:13:08.704Z,54.99
2018-07-11T12:14:09.224Z,57.89
2018-07-11T12:15:12.136Z,57.24
2018-07-11T12:16:09.214Z,58.12
2018-07-11T12:17:09.705Z,53.59
2018-07-11T12:18:09.704Z,51.95
2018-07-11T12:19:09.709Z,49.34
2018-07-11T12:20:09.704Z,51.95
2018-07-11T12:21:09.758Z,47.89
2018-07-11T12:22:09.816Z,45.86
2018-07-11T12:23:10.704Z,48.66
2018-07-11T12:24:10.704Z,51.18
2018-07-11T12:25:10.712Z,52.36
2018-07-11T12:27:42.460Z,47.89
2018-07-11T12:28:42.465Z,48.66
2018-07-11T12:29:42.464Z,49.51
2018-07-11T12:32:16.709Z,49.10
2018-07-11T12:33:14.728Z,49.87
2018-07-11T12:34:29.231Z,48.03
2018-07-11T12:35:14.466Z,50.43
2018-07-11T12:36:36.228Z,49.95
2018-07-11T12:37:15.239Z,48.30
2018-07-11T12:39:47.014Z,47.33
2018-07-11T12:40:47.035Z,49.17
2018-07-11T12:41:46.529Z,49.07
2018-07-11T12:44:18.793Z,47.48
2018-07-11T12:45:18.801Z,48.08
2018-07-11T12:46:18.312Z,43.61
2018-07-11T12:50:24.015Z,42.96
2018-07-11T12:52:53.549Z,41.50
2018-07-11T12:54:07.544Z,41.72
2018-07-11T12:54:53.010Z,42.59
2018-07-11T12:55:55.501Z,41.70
2018-07-11T12:58:45.648Z,44.98
2018-07-11T12:59:46.400Z,44.50
2018-07-11T13:00:27.403Z,45.37
2018-07-11T13:01:47.833Z,42.57
2018-07-11T13:02:46.114Z,43.54
2018-07-11T13:03:25.904Z,43.82
2018-07-11T13:04:25.901Z,45.76
2018-07-11T13:07:17.948Z,45.22
2018-07-11T13:08:11.669Z,45.73
2018-07-11T13:09:18.670Z,44.88
2018-07-11T13:11:56.944Z,45.17
2018-07-11T13:12:29.958Z,47.20
2018-07-11T13:13:29.948Z,43.12
2018-07-11T13:14:30.446Z,44.93
2018-07-11T13:17:01.147Z,46.56
2018-07-11T13:18:01.268Z,47.81
2018-07-11T13:19:16.339Z,49.34
2018-07-11T13:20:08.341Z,45.28
2018-07-11T13:21:23.337Z,46.51
2018-07-11T13:22:23.338Z,48.93
2018-07-11T13:23:22.821Z,48.64
2018-07-11T13:24:01.921Z,48.25
2018-07-11T13:25:23.836Z,46.68
2018-07-11T13:26:23.844Z,48.90
2018-07-11T13:27:02.318Z,48.79
2018-07-11T13:28:26.337Z,51.42
2018-07-11T13:29:02.589Z,47.45
2018-07-11T13:30:03.337Z,47.19
2018-07-11T13:31:03.338Z,46.61
2018-07-11T13:32:23.926Z,46.12
2018-07-11T13:33:30.840Z,46.44
2018-07-11T13:34:24.837Z,46.83
2018-07-11T13:35:05.847Z,48.37
2018-07-11T13:36:04.339Z,48.97
2018-07-11T13:38:55.983Z,45.01
2018-07-11T13:39:35.741Z,45.88
2018-07-11T13:40:56.740Z,49.65
2018-07-11T13:43:09.499Z,45.57
2018-07-11T13:47:24.468Z,49.10
2018-07-11T13:48:10.483Z,49.77
2018-07-11T13:49:16.910Z,51.59
2018-07-11T13:53:15.748Z,52.62
2018-07-11T14:00:19.893Z,55.36
2018-07-11T14:01:21.363Z,56.62
2018-07-11T14:02:19.367Z,55.66
2018-07-11T14:03:26.389Z,57.29
2018-07-11T14:04:20.396Z,56.43
2018-07-11T14:05:20.391Z,55.05
2018-07-11T14:06:20.388Z,55.73
2018-07-11T14:07:20.941Z,55.05
2018-07-11T14:10:19.556Z,56.69
2018-07-11T14:10:51.919Z,56.98
2018-07-11T14:11:52.571Z,55.54
2018-07-11T14:12:53.070Z,56.11
2018-07-11T14:13:53.070Z,57.27
2018-07-11T14:15:13.407Z,57.07
2018-07-11T14:15:53.077Z,57.27
2018-07-11T14:16:52.706Z,55.34
2018-07-11T14:17:53.570Z,55.89
2018-07-11T14:18:53.572Z,56.98
2018-07-11T14:19:53.575Z,56.47
2018-07-11T14:21:17.074Z,56.98
2018-07-11T14:21:54.074Z,56.98
2018-07-11T14:22:54.071Z,56.49
2018-07-11T14:23:54.071Z,57.17
2018-07-11T14:25:16.571Z,56.69
2018-07-11T14:25:53.800Z,56.69
2018-07-11T14:27:16.569Z,58.72
2018-07-11T14:27:54.571Z,57.10
2018-07-11T14:28:56.011Z,56.98
2018-07-11T14:29:55.079Z,57.17
2018-07-11T14:30:55.077Z,57.68
2018-07-11T14:31:54.432Z,58.07
2018-07-11T14:32:55.071Z,56.91
2018-07-11T14:33:55.575Z,59.23
2018-07-11T14:36:26.245Z,56.24
2018-07-11T14:37:26.351Z,56.14
2018-07-11T14:38:26.453Z,57.59
2018-07-11T14:39:29.459Z,58.65
2018-07-11T14:40:33.459Z,57.29
2018-07-11T14:41:27.456Z,57.29
2018-07-11T14:43:59.155Z,54.60
2018-07-11T14:44:59.117Z,54.60
2018-07-11T14:46:00.547Z,55.27
2018-07-11T14:47:05.615Z,55.08
2018-07-11T14:48:01.617Z,53.63
2018-07-11T14:48:59.623Z,54.33
2018-07-11T14:49:59.101Z,54.14
2018-07-11T14:51:01.550Z,53.42
2018-07-11T14:52:21.115Z,53.55
2018-07-11T14:53:00.176Z,52.09
2018-07-11T14:54:00.120Z,50.55
2018-07-11T14:55:00.111Z,47.43
2018-07-11T14:57:35.161Z,46.08
2018-07-11T14:58:31.291Z,47.80
2018-07-11T14:59:31.883Z,49.24
2018-07-11T15:00:38.384Z,49.92
2018-07-11T15:01:33.367Z,50.89
2018-07-11T15:02:34.387Z,50.76
2018-07-11T15:03:31.881Z,51.73
2018-07-11T15:04:52.994Z,52.59
2018-07-11T15:05:53.887Z,51.75
2018-07-11T15:06:32.963Z,51.73
2018-07-11T15:07:41.320Z,50.38
2018-07-11T15:08:55.588Z,51.53
2018-07-11T15:09:33.386Z,51.25
2018-07-11T15:10:33.393Z,52.59
2018-07-11T15:11:33.387Z,52.40
2018-07-11T15:12:33.894Z,52.57
2018-07-11T15:13:33.891Z,54.98
2018-07-11T15:14:33.899Z,54.98
2018-07-11T15:15:40.394Z,56.33
2018-07-11T15:18:05.658Z,55.34
2018-07-11T15:19:05.003Z,55.63
2018-07-11T15:20:05.111Z,56.18
2018-07-11T15:21:29.119Z,57.53
2018-07-11T15:23:37.498Z,57.24
2018-07-11T15:27:41.892Z,59.36
2018-07-11T15:28:40.962Z,60.80
2018-07-11T15:29:40.970Z,59.23
2018-07-11T15:30:41.462Z,59.07
2018-07-11T15:32:03.458Z,59.14
2018-07-11T15:34:12.988Z,60.13
2018-07-11T15:35:12.980Z,60.80
2018-07-11T15:36:14.454Z,60.52
2018-07-11T15:37:12.578Z,57.92
2018-07-11T15:39:45.781Z,56.69
2018-07-11T15:40:44.189Z,56.72
2018-07-11T15:42:05.847Z,56.46
2018-07-11T15:42:44.464Z,56.36
2018-07-11T15:43:45.346Z,57.32
2018-07-11T15:45:06.347Z,56.48
2018-07-11T15:45:45.394Z,56.77
2018-07-11T15:46:45.848Z,56.56
2018-07-11T15:48:06.849Z,55.88
2018-07-11T15:48:45.851Z,55.30
2018-07-11T15:49:45.847Z,55.88
2018-07-11T15:52:17.602Z,56.72
2018-07-11T15:53:17.615Z,57.01
2018-07-11T15:54:17.607Z,57.01
2018-07-11T15:55:24.099Z,57.78
2018-07-11T15:56:18.107Z,57.01
2018-07-11T15:57:18.107Z,58.42
2018-07-11T15:58:18.107Z,60.64
2018-07-11T15:59:39.672Z,59.58
2018-07-11T16:00:17.851Z,61.13
2018-07-11T16:01:18.606Z,59.68
2018-07-11T16:02:19.570Z,59.10
2018-07-11T16:03:40.107Z,59.48